Latest Weather Observations for Gatton

IDQ60801

Issued at 7:02 am EST Friday 1 July 2016 (issued every 30 minutes, with the page automatically refreshed every 10 minutes)

About weather observations | Map of weather stations | Latest weather observations for QLD | Other Formats
Station Details ID: 040082 Name: UNIVERSITY OF QUEENSLAND GATTON Lat: -27.54 Lon: 152.34 Height: 89.0 m
Data from the previous 72 hours. | See also: Recent months at Gatton
Date/Time
EST
Temp
°C
App
Temp
°C
Dew
Point
°C
Rel
Hum
%
Delta-T
°C
Wind Press
QNH
hPa
Press
MSL
hPa
Rain since
9am
mm
Dir  Spd
km/h
Gust
km/h
Spd
kts
Gust
kts
01/07:00am 7.4 4.2 5.2 86 1.0 WSW 11 15 6 8 - - 0.0
01/06:30am 7.3 4.2 5.4 88 0.8 W 11 15 6 8 - - 0.0
01/06:00am 6.8 3.7 5.4 91 0.6 W 11 15 6 8 - - 0.0
01/05:30am 6.9 4.6 5.7 92 0.5 WNW 7 9 4 5 - - 0.0
01/05:00am 6.7 4.3 5.3 91 0.6 WSW 7 9 4 5 - - 0.0
01/04:30am 7.4 4.8 6.2 92 0.5 W 9 11 5 6 - - 0.0
01/04:00am 7.8 5.8 6.9 94 0.4 WSW 7 9 4 5 - - 0.0
01/03:30am 7.9 7.1 6.7 92 0.6 CALM 0 0 0 0 - - 0.0
01/03:00am 7.9 6.3 6.5 91 0.6 E 4 11 2 6 - - 0.0
01/02:30am 9.0 7.3 7.5 90 0.7 W 6 7 3 4 - - 0.0
01/02:00am 9.9 7.7 7.8 87 1.0 WSW 9 13 5 7 - - 0.0
01/01:30am 10.6 8.9 8.5 87 1.0 WSW 7 11 4 6 - - 0.0
01/01:00am 11.1 9.7 8.8 86 1.1 W 6 7 3 4 - - 0.0
01/12:30am 10.8 8.4 8.6 86 1.1 W 11 15 6 8 - - 0.0
01/12:00am 10.8 9.2 8.9 88 0.9 W 7 11 4 6 - - 0.0
 
Date/Time
EST
Temp
°C
App
Temp
°C
Dew
Point
°C
Rel
Hum
%
Delta-T
°C
Wind Press
QNH
hPa
Press
MSL
hPa
Rain since
9am
mm
Dir  Spd
km/h
Gust
km/h
Spd
kts
Gust
kts
30/11:30pm 11.0 9.6 8.9 87 1.0 W 6 11 3 6 - - 0.0
30/11:00pm 11.0 9.0 8.8 86 1.1 W 9 11 5 6 - - 0.0
30/10:30pm 11.1 10.9 9.0 87 1.0 CALM 0 0 0 0 - - 0.0
30/10:00pm 11.8 11.4 9.7 87 1.1 WNW 2 7 1 4 - - 0.0
30/09:30pm 11.1 10.8 8.8 86 1.1 CALM 0 0 0 0 - - 0.0
30/09:00pm 12.1 10.6 9.3 83 1.4 WSW 7 9 4 5 - - 0.0
30/08:30pm 12.4 11.1 9.2 81 1.6 WNW 6 11 3 6 - - 0.0
30/08:00pm 13.2 12.8 9.6 79 1.8 SSW 2 7 1 4 - - 0.0
30/07:30pm 12.6 12.4 8.9 78 1.9 CALM 0 0 0 0 - - 0.0
30/07:00pm 13.5 12.5 9.0 74 2.3 W 4 7 2 4 - - 0.0
30/06:30pm 13.1 12.7 8.2 72 2.4 CALM 0 0 0 0 - - 0.0
30/06:00pm 14.4 14.1 8.6 68 2.9 CALM 0 0 0 0 - - 0.0
30/05:30pm 16.4 15.0 9.6 64 3.6 ENE 7 9 4 5 - - 0.0
30/05:00pm 16.9 15.5 9.6 62 3.8 ENE 7 11 4 6 - - 0.0
30/04:30pm 18.1 15.6 9.7 58 4.5 ENE 13 17 7 9 - - 0.0
30/04:00pm 19.6 17.3 10.3 55 5.0 E 13 17 7 9 - - 0.0
30/03:30pm 19.2 16.7 9.7 54 5.1 ENE 13 17 7 9 - - 0.0
30/03:00pm 20.3 17.8 9.8 51 5.6 ENE 13 15 7 8 - - 0.0
30/02:30pm 20.6 18.5 9.8 50 5.8 NE 11 22 6 12 - - 0.0
30/02:00pm 20.5 18.0 9.7 50 5.8 NNE 13 19 7 10 - - 0.0
30/01:30pm 21.1 18.8 10.3 50 5.9 NE 13 20 7 11 - - 0.0
30/01:00pm 20.2 17.4 10.0 52 5.5 NE 15 22 8 12 - - 0.0
30/12:30pm 19.2 17.8 9.4 53 5.2 NE 7 17 4 9 - - 0.0
30/12:00pm 19.0 17.3 8.4 50 5.5 E 7 11 4 6 - - 0.0
30/11:30am 18.0 17.2 8.0 52 5.1 SSE 2 7 1 4 - - 0.0
30/11:00am 16.9 16.5 8.1 56 4.5 CALM 0 7 0 4 - - 0.0
30/10:30am 15.0 13.6 7.3 60 3.8 WSW 4 9 2 5 - - 0.0
30/10:00am 13.2 11.2 7.2 67 2.9 W 7 11 4 6 - - 0.0
30/09:30am 11.5 9.6 6.8 73 2.2 W 6 9 3 5 - - 0.0
30/09:00am 9.5 7.3 6.2 80 1.5 W 7 11 4 6 - - 0.0
30/08:30am 7.4 4.9 4.9 84 1.1 W 7 11 4 6 - - 0.0
30/08:00am 5.9 2.9 4.1 88 0.8 W 9 13 5 7 - - 0.0
30/07:30am 4.7 2.0 3.8 94 0.4 W 7 11 4 6 - - 0.0
30/07:00am 2.8 0.0 1.9 94 0.4 W 6 9 3 5 - - 0.0
30/06:30am 2.5 -0.6 1.5 93 0.4 W 7 11 4 6 - - 0.0
30/06:00am 2.5 -0.6 1.3 92 0.5 W 7 11 4 6 - - 0.0
30/05:30am 2.8 0.3 1.3 90 0.6 W 4 7 2 4 - - 0.0
30/05:00am 3.6 0.6 2.3 91 0.5 W 7 11 4 6 - - 0.0
30/04:30am 3.9 0.6 2.6 91 0.5 W 9 11 5 6 - - 0.0
30/04:00am 3.9 0.6 2.4 90 0.6 W 9 11 5 6 - - 0.0
30/03:30am 4.1 1.1 2.3 88 0.7 W 7 9 4 5 - - 0.0
30/03:00am 4.5 1.3 2.8 89 0.7 W 9 11 5 6 - - 0.0
30/02:30am 4.3 1.0 2.3 87 0.8 W 9 11 5 6 - - 0.0
30/02:00am 4.7 0.7 2.7 87 0.8 W 13 15 7 8 - - 0.0
30/01:30am 5.3 1.4 3.2 86 0.9 W 13 17 7 9 - - 0.0
30/01:00am 5.6 1.6 3.1 84 1.0 W 13 17 7 9 - - 0.0
30/12:30am 5.9 2.0 3.2 83 1.1 W 13 17 7 9 - - 0.0
30/12:00am 6.1 2.2 3.4 83 1.1 W 13 15 7 8 - - 0.0
 
Date/Time
EST
Temp
°C
App
Temp
°C
Dew
Point
°C
Rel
Hum
%
Delta-T
°C
Wind Press
QNH
hPa
Press
MSL
hPa
Rain since
9am
mm
Dir  Spd
km/h
Gust
km/h
Spd
kts
Gust
kts
29/11:30pm 6.4 2.1 3.4 81 1.3 W 15 17 8 9 - - 0.0
29/11:00pm 6.8 2.9 3.6 80 1.4 W 13 17 7 9 - - 0.0
29/10:30pm 7.4 3.9 3.6 77 1.6 W 11 15 6 8 - - 0.0
29/10:00pm 7.7 4.6 3.7 76 1.7 WSW 9 13 5 7 - - 0.0
29/09:30pm 7.8 4.8 4.0 77 1.6 W 9 11 5 6 - - 0.0
29/09:00pm 8.6 5.3 4.6 76 1.8 W 11 13 6 7 - - 0.0
29/08:30pm 8.5 5.6 4.7 77 1.7 WSW 9 13 5 7 - - 0.0
29/08:00pm 7.9 6.2 4.1 77 1.7 WSW 2 7 1 4 - - 0.0
29/07:30pm 8.5 6.8 3.9 73 2.0 WSW 2 7 1 4 - - 0.0
29/07:00pm 9.0 6.6 4.4 73 2.0 W 6 7 3 4 - - 0.0
29/06:30pm 11.0 9.9 4.9 66 2.8 CALM 0 0 0 0 - - 0.0
29/06:00pm 12.0 10.9 5.2 63 3.1 CALM 0 0 0 0 - - 0.0
29/05:30pm 13.6 11.2 5.3 57 3.9 N 7 7 4 4 - - 0.0
29/05:00pm 17.3 14.8 4.6 43 6.0 N 7 9 4 5 - - 0.0
29/04:30pm 19.0 16.5 4.7 39 6.9 N 7 9 4 5 - - 0.0
29/04:00pm 19.9 17.3 4.0 35 7.6 N 7 15 4 8 - - 0.0
29/03:30pm 20.1 17.3 3.3 33 8.0 E 7 11 4 6 - - 0.0
29/03:00pm 20.8 18.2 4.4 34 8.0 E 7 9 4 5 - - 0.0
29/02:30pm 20.4 17.9 4.8 36 7.6 NNE 7 13 4 7 - - 0.0
29/02:00pm 20.0 17.6 4.5 36 7.5 NNE 6 13 3 7 - - 0.0
29/01:30pm 20.0 18.6 5.6 39 7.1 E 2 9 1 5 - - 0.0
29/01:00pm 19.6 17.1 4.5 37 7.3 E 7 13 4 7 - - 0.0
29/12:30pm 19.0 16.8 5.1 40 6.8 NNW 6 11 3 6 - - 0.0
29/12:00pm 18.0 15.7 4.9 42 6.3 ESE 6 13 3 7 - - 0.0
29/11:30am 17.8 15.7 6.0 46 5.8 ESE 6 13 3 7 - - 0.0
29/11:00am 15.8 13.9 5.1 49 5.1 WSW 4 11 2 6 - - 0.0
29/10:30am 14.6 12.5 5.9 56 4.2 WSW 6 9 3 5 - - 0.0
29/10:00am 13.2 10.6 6.1 62 3.4 W 9 11 5 6 - - 0.0
29/09:30am 11.6 9.3 5.5 66 2.8 W 7 11 4 6 - - 0.0
29/09:00am 9.9 7.0 4.9 71 2.3 W 9 11 5 6 - - 0.0
29/08:30am 8.3 5.0 4.5 77 1.7 WNW 11 15 6 8 - - 0.0
29/08:00am 6.9 3.9 4.0 82 1.2 W 9 13 5 7 - - 0.0
29/07:30am 5.3 3.1 3.5 88 0.8 W 4 7 2 4 - - 0.0
29/07:00am 4.0 1.1 2.4 89 0.6 NW 7 9 4 5 - - 0.0
29/06:30am 4.7 1.5 2.9 88 0.7 WNW 9 13 5 7 - - 0.0
29/06:00am 4.5 2.2 2.7 88 0.7 W 4 9 2 5 - - 0.0
29/05:30am 4.3 1.0 2.3 87 0.8 W 9 11 5 6 - - 0.0
29/05:00am 5.4 2.2 3.3 86 0.9 W 9 11 5 6 - - 0.0
29/04:30am 5.3 1.7 3.2 86 0.9 W 11 13 6 7 - - 0.0
29/04:00am 5.9 2.4 3.4 84 1.1 WSW 11 17 6 9 - - 0.0
29/03:30am 5.9 2.4 3.6 85 1.0 WSW 11 15 6 8 - - 0.0
29/03:00am 5.9 2.4 3.4 84 1.1 W 11 15 6 8 - - 0.0
29/02:30am 6.8 3.0 3.9 82 1.2 WSW 13 17 7 9 - - 0.0
29/02:00am 6.8 3.3 3.6 80 1.4 WSW 11 15 6 8 - - 0.0
29/01:30am 7.4 3.6 3.8 78 1.5 WSW 13 19 7 10 - - 0.0
29/01:00am 8.1 4.0 4.1 76 1.7 W 15 19 8 10 - - 0.0
29/12:30am 8.8 4.7 4.4 74 1.9 W 15 20 8 11 - - 0.0
29/12:00am 9.3 4.5 4.5 72 2.1 W 19 26 10 14 - - 0.0
 
Date/Time
EST
Temp
°C
App
Temp
°C
Dew
Point
°C
Rel
Hum
%
Delta-T
°C
Wind Press
QNH
hPa
Press
MSL
hPa
Rain since
9am
mm
Dir  Spd
km/h
Gust
km/h
Spd
kts
Gust
kts
28/11:30pm 9.6 4.8 4.6 71 2.2 W 19 24 10 13 - - 0.0
28/11:00pm 10.1 5.1 4.7 69 2.4 W 20 28 11 15 - - 0.0
28/10:30pm 10.4 5.1 4.8 68 2.5 W 22 30 12 16 - - 0.0
28/10:00pm 10.5 5.5 4.6 67 2.7 W 20 30 11 16 - - 0.0
28/09:30pm 10.3 5.3 4.5 67 2.6 W 20 32 11 17 - - 0.0
28/09:00pm 10.2 5.7 4.4 67 2.6 W 17 20 9 11 - - 0.0
28/08:30pm 10.5 6.4 4.4 66 2.7 W 15 22 8 12 - - 0.0
28/08:00pm 11.0 6.1 4.0 62 3.1 W 19 22 10 12 - - 0.0
28/07:30pm 11.7 7.2 4.0 59 3.5 W 17 24 9 13 - - 0.0
28/07:00pm 12.0 7.4 3.5 56 3.8 W 17 24 9 13 - - 0.0
28/06:30pm 12.3 7.7 3.5 55 3.9 W 17 24 9 13 - - 0.0
28/06:00pm 12.7 7.7 3.4 53 4.2 W 19 26 10 14 - - 0.0
28/05:30pm 13.3 8.3 3.7 52 4.3 W 19 28 10 15 - - 0.0
28/05:00pm 14.5 9.3 3.6 48 5.0 WSW 20 32 11 17 - - 0.0
28/04:30pm 15.5 9.9 3.6 45 5.5 WSW 22 33 12 18 - - 0.0
28/04:00pm 16.2 9.9 3.9 44 5.7 WSW 26 35 14 19 - - 0.0
28/03:30pm 16.8 10.6 4.2 43 5.9 W 26 35 14 19 - - 0.0
28/03:00pm 16.8 9.7 3.5 41 6.2 WSW 30 41 16 22 - - 0.0
28/02:30pm 16.4 9.7 3.5 42 6.0 WSW 28 44 15 24 - - 0.0
28/02:00pm 16.4 9.3 3.8 43 5.9 WSW 30 43 16 23 - - 0.0
28/01:30pm 16.2 9.9 3.6 43 5.8 WSW 26 37 14 20 - - 0.0
28/01:00pm 15.4 8.3 3.5 45 5.5 W 30 39 16 21 - - 0.0
28/12:30pm 15.4 8.4 3.9 46 5.3 WSW 30 39 16 21 - - 0.0
28/12:00pm 14.3 7.1 3.2 47 5.0 W 30 43 16 23 - - 0.0
28/11:30am 13.8 6.7 3.6 50 4.6 WSW 30 44 16 24 - - 0.0
28/11:00am 12.7 4.9 3.1 52 4.3 WSW 33 43 18 23 - - 0.0
28/10:30am 12.4 4.9 3.6 55 3.9 W 32 43 17 23 - - 0.0
28/10:18am 12.2 5.2 3.9 57 3.7 WSW 30 48 16 26 - - 0.0
28/10:00am 11.1 2.9 2.9 57 3.6 W 35 48 19 26 - - 0.0
28/09:30am 10.5 2.4 3.1 60 3.2 WSW 35 50 19 27 - - 0.0
28/09:00am 10.1 2.4 3.2 62 3.0 WSW 33 46 18 25 - - 0.0
28/08:31am 9.2 1.5 2.5 63 2.8 WSW 32 50 17 27 - - 0.0
28/08:30am 9.2 1.3 2.5 63 2.8 WSW 33 50 18 27 - - 0.0
28/08:26am 9.4 1.6 2.9 64 2.8 WSW 33 52 18 28 - - 0.0
28/08:00am 8.7 0.8 2.1 63 2.8 WSW 33 48 18 26 - - 0.0
28/07:30am 8.1 0.1 1.7 64 2.6 WSW 33 46 18 25 - - 0.0

Other Formats:

Comma delimited format used in spreadsheet applications
http://www.bom.gov.au/fwo/IDQ60801/IDQ60801.94562.axf

JavaScript Object Notation format (JSON) in row-major order
http://www.bom.gov.au/fwo/IDQ60801/IDQ60801.94562.json